Time;durP1;ratioP1;P1;durP2;ratioP2;P2;SDS_P1;SDS_P2;PMS_P1;PMS_P2;Temp;Humidity;BMP_temperature;BMP_pressure;BME280_temperature;BME280_humidity;BME280_pressure;Samples;Min_cycle;Max_cycle;Signal;HPM_P1;HPM_P2
2021/06/12 00:01:55;;;;;;;11.77;10.77;;;;;;;12.55;75.39;96187.91;3581607;40;20787;-62
2021/06/12 00:04:23;;;;;;;12.55;11.32;;;;;;;12.56;76.13;96188.72;3566190;40;20062;-62
2021/06/12 00:06:51;;;;;;;11.60;10.50;;;;;;;12.56;76.51;96188.72;3570983;39;20058;-62
2021/06/12 00:09:19;;;;;;;13.52;12.25;;;;;;;12.43;76.23;96179.44;3589654;39;20052;-62
2021/06/12 00:11:46;;;;;;;9.93;8.85;;;;;;;12.38;76.47;96187.34;3581036;39;20066;-62
2021/06/12 00:14:14;;;;;;;12.60;9.27;;;;;;;12.39;77.29;96195.03;3583373;39;20242;-62
2021/06/12 00:16:42;;;;;;;10.15;9.15;;;;;;;12.42;77.35;96188.41;3585325;39;20044;-62
2021/06/12 00:19:10;;;;;;;15.90;14.32;;;;;;;12.43;76.72;96180.22;3591988;39;20074;-61
2021/06/12 00:21:37;;;;;;;12.32;11.00;;;;;;;12.42;76.57;96177.84;3579732;39;20311;-61
2021/06/12 00:24:07;;;;;;;12.98;11.68;;;;;;;12.40;77.37;96175.47;3575848;39;20048;-62
2021/06/12 00:26:36;;;;;;;10.07;9.18;;;;;;;12.36;76.46;96168.31;3591021;39;20405;-61
2021/06/12 00:29:04;;;;;;;11.07;9.98;;;;;;;12.21;77.66;96171.69;3588400;39;20048;-61
2021/06/12 00:31:32;;;;;;;10.23;8.90;;;;;;;12.18;77.64;96167.72;3584354;39;20046;-61
2021/06/12 00:34:00;;;;;;;10.52;8.85;;;;;;;12.22;77.27;96179.38;3591718;39;20105;-61
2021/06/12 00:36:27;;;;;;;11.40;10.23;;;;;;;12.19;77.22;96182.53;3590131;39;20058;-62
2021/06/12 00:38:55;;;;;;;10.50;9.50;;;;;;;12.15;77.54;96176.97;3591914;39;20052;-62
2021/06/12 00:41:22;;;;;;;9.73;8.75;;;;;;;12.05;78.66;96176.94;3591896;39;20434;-62
2021/06/12 00:43:50;;;;;;;10.23;9.23;;;;;;;12.03;78.85;96173.75;3590996;40;20044;-62
2021/06/12 00:46:18;;;;;;;11.90;9.38;;;;;;;11.99;79.49;96170.03;3590498;39;20056;-61
2021/06/12 00:48:47;;;;;;;10.95;9.10;;;;;;;11.96;79.72;96175.78;3566096;39;20062;-61
2021/06/12 00:51:14;;;;;;;10.23;9.27;;;;;;;11.93;79.62;96177.09;3589087;39;20054;-61
2021/06/12 00:53:42;;;;;;;9.43;8.52;;;;;;;11.96;78.87;96176.59;3581606;40;20044;-62
2021/06/12 00:56:16;;;;;;;10.48;7.93;;;;;;;11.98;78.93;96173.72;3581060;40;20045;-61
2021/06/12 00:58:46;;;;;;;10.68;9.68;;;;;;;11.99;78.84;96175.31;3581033;40;20063;-61
2021/06/12 01:01:17;;;;;;;10.68;9.57;;;;;;;12.01;78.74;96178.50;3574363;40;20054;-61
2021/06/12 01:03:45;;;;;;;13.93;11.50;;;;;;;11.99;78.29;96175.31;3579415;40;20044;-61
2021/06/12 01:06:16;;;;;;;10.55;9.55;;;;;;;11.94;78.58;96183.16;3581381;40;20056;-61
2021/06/12 01:08:44;;;;;;;10.57;9.50;;;;;;;11.83;79.45;96177.06;3571734;40;20052;-61
2021/06/12 01:11:12;;;;;;;12.50;8.48;;;;;;;11.73;79.59;96183.06;3579564;40;20056;-61
2021/06/12 01:14:04;;;;;;;11.40;10.02;;;;;;;11.64;80.07;96185.41;3577368;40;20382;-67
2021/06/12 01:16:38;;;;;;;9.95;8.93;;;;;;;11.63;79.95;96189.09;3583928;40;20036;-62
2021/06/12 01:19:39;;;;;;;10.50;8.98;;;;;;;11.65;79.60;96181.72;3571369;40;20028;-62
2021/06/12 01:22:13;;;;;;;11.10;9.55;;;;;;;11.61;80.23;96178.00;3581524;40;20793;-62
2021/06/12 01:25:04;;;;;;;9.73;8.73;;;;;;;11.60;79.26;96183.53;3580618;40;20052;-62
2021/06/12 01:27:56;;;;;;;10.48;9.57;;;;;;;11.59;79.69;96177.47;3584690;39;20443;-62
2021/06/12 01:30:27;;;;;;;11.48;10.40;;;;;;;11.58;80.32;96173.22;3582217;40;20048;-62
2021/06/12 01:33:00;;;;;;;11.50;10.40;;;;;;;11.54;80.05;96180.06;3582430;40;20399;-61
2021/06/12 01:35:41;;;;;;;11.50;10.43;;;;;;;11.53;79.78;96173.19;3580967;40;20048;-65
2021/06/12 01:38:14;;;;;;;11.48;10.35;;;;;;;11.46;80.96;96173.41;3590148;40;22007;-62
2021/06/12 01:40:44;;;;;;;12.25;11.15;;;;;;;11.43;81.24;96181.06;3581939;40;20111;-62
2021/06/12 01:43:15;;;;;;;12.80;9.57;;;;;;;11.37;81.38;96173.09;3575542;40;20051;-63
2021/06/12 01:45:46;;;;;;;11.30;10.30;;;;;;;11.25;81.63;96182.25;3582268;40;20082;-62
2021/06/12 01:48:15;;;;;;;10.82;9.82;;;;;;;11.27;81.71;96180.16;3576725;40;20056;-62
2021/06/12 01:50:43;;;;;;;9.98;8.98;;;;;;;11.31;81.11;96181.25;3587211;39;20056;-61
2021/06/12 01:53:16;;;;;;;12.82;11.50;;;;;;;11.30;81.76;96184.94;3590374;40;20050;-67
2021/06/12 01:55:45;;;;;;;11.63;10.15;;;;;;;11.23;82.03;96183.28;3575950;40;20040;-63
2021/06/12 01:58:20;;;;;;;12.90;11.52;;;;;;;11.19;81.91;96184.88;3590246;39;20059;-61
2021/06/12 02:00:48;;;;;;;12.67;11.37;;;;;;;11.17;81.84;96183.50;3580085;39;20050;-62
2021/06/12 02:03:18;;;;;;;11.85;10.60;;;;;;;11.14;82.03;96176.88;3575986;40;20048;-61
2021/06/12 02:05:46;;;;;;;12.43;11.13;;;;;;;11.18;81.50;96179.81;3584945;40;20060;-62
2021/06/12 02:08:15;;;;;;;11.48;10.30;;;;;;;11.21;81.08;96192.53;3591639;39;20048;-61
2021/06/12 02:10:46;;;;;;;11.27;10.18;;;;;;;11.21;81.08;96177.47;3584960;39;20062;-61
2021/06/12 02:13:16;;;;;;;13.20;11.60;;;;;;;11.19;81.52;96181.41;3592816;39;20047;-61
2021/06/12 02:15:50;;;;;;;12.60;11.30;;;;;;;11.13;81.32;96175.28;3581415;39;20050;-61
2021/06/12 02:18:18;;;;;;;12.77;11.57;;;;;;;11.07;81.97;96177.09;3585026;39;20051;-62
2021/06/12 02:20:49;;;;;;;11.68;10.50;;;;;;;11.05;82.01;96173.13;3591558;40;21066;-62
2021/06/12 02:23:17;;;;;;;15.00;13.40;;;;;;;11.03;82.26;96172.59;3591298;39;20081;-63
2021/06/12 02:25:46;;;;;;;13.63;11.27;;;;;;;11.01;82.22;96172.84;3593886;39;20040;-63
2021/06/12 02:28:17;;;;;;;12.60;11.40;;;;;;;10.98;82.11;96173.34;3573956;40;20386;-62
2021/06/12 02:30:53;;;;;;;14.35;11.75;;;;;;;10.96;81.95;96172.78;3591806;39;20047;-62
2021/06/12 02:33:24;;;;;;;12.68;11.38;;;;;;;10.96;82.07;96180.72;3591610;39;20378;-62
2021/06/12 02:35:56;;;;;;;12.05;10.93;;;;;;;10.92;82.46;96171.69;3583366;40;20040;-62
2021/06/12 02:38:23;;;;;;;12.40;11.20;;;;;;;10.94;82.06;96174.09;3593106;39;20052;-62
2021/06/12 02:40:51;;;;;;;13.35;12.00;;;;;;;10.92;82.42;96175.16;3573685;40;21105;-62
2021/06/12 02:43:19;;;;;;;14.32;11.30;;;;;;;10.86;82.40;96175.34;3571094;39;20062;-62
2021/06/12 02:45:47;;;;;;;12.32;11.13;;;;;;;10.90;82.37;96173.78;3572391;39;20054;-62
2021/06/12 02:48:17;;;;;;;15.30;12.82;;;;;;;10.84;82.59;96174.78;3591044;39;20066;-62
2021/06/12 02:50:47;;;;;;;14.02;12.57;;;;;;;10.83;82.49;96175.84;3579854;39;20340;-62
2021/06/12 02:53:17;;;;;;;12.40;11.27;;;;;;;10.90;82.04;96168.50;3590073;39;20048;-62
2021/06/12 02:55:49;;;;;;;14.48;12.00;;;;;;;10.95;81.73;96178.34;3591423;39;20296;-62
2021/06/12 02:58:23;;;;;;;21.13;12.10;;;;;;;10.96;81.87;96179.91;3593195;39;20056;-62
2021/06/12 03:00:52;;;;;;;15.15;12.93;;;;;;;10.95;81.76;96178.34;3580523;39;20056;-63
2021/06/12 03:03:22;;;;;;;12.77;11.50;;;;;;;10.94;82.56;96176.75;3581889;40;20056;-63
2021/06/12 03:05:55;;;;;;;13.05;11.75;;;;;;;10.94;82.38;96174.88;3590743;39;20371;-63
2021/06/12 03:08:25;;;;;;;15.25;13.75;;;;;;;10.94;82.47;96172.25;3593003;39;20055;-63
2021/06/12 03:10:53;;;;;;;17.55;14.10;;;;;;;11.02;82.15;96177.06;3592334;39;20113;-62
2021/06/12 03:13:26;;;;;;;17.98;14.25;;;;;;;11.02;82.40;96184.97;3590071;39;20058;-62
2021/06/12 03:16:00;;;;;;;14.23;12.73;;;;;;;11.06;82.32;96180.78;3585156;39;20052;-62
2021/06/12 03:18:29;;;;;;;15.05;12.32;;;;;;;11.10;82.67;96182.94;3589769;39;20048;-62
2021/06/12 03:20:59;;;;;;;15.25;13.85;;;;;;;11.15;82.01;96186.41;3592576;40;20052;-62
2021/06/12 03:23:30;;;;;;;15.40;13.82;;;;;;;11.22;82.40;96188.84;3580994;39;20558;-63
2021/06/12 03:25:59;;;;;;;13.95;12.45;;;;;;;11.33;81.71;96189.69;3591507;39;20060;-63
2021/06/12 03:28:30;;;;;;;16.23;14.40;;;;;;;11.43;81.75;96184.50;3590367;39;20060;-63
2021/06/12 03:31:01;;;;;;;12.55;11.35;;;;;;;11.87;80.38;96188.72;3592492;39;20109;-62
2021/06/12 03:33:29;;;;;;;12.73;11.52;;;;;;;12.94;76.40;96183.22;3591618;39;20044;-62
2021/06/12 03:35:58;;;;;;;15.48;11.75;;;;;;;13.84;74.54;96187.94;3582990;39;20036;-63
2021/06/12 03:38:28;;;;;;;11.55;10.50;;;;;;;14.67;72.02;96184.94;3589779;39;20457;-64
2021/06/12 03:40:57;;;;;;;12.75;11.18;;;;;;;15.28;69.07;96187.41;3583317;39;20052;-63
2021/06/12 03:43:27;;;;;;;10.20;8.73;;;;;;;16.10;68.05;96193.81;3591191;39;20052;-63
2021/06/12 03:45:56;;;;;;;10.48;9.48;;;;;;;16.86;63.24;96191.22;3591381;39;20563;-63
2021/06/12 03:48:24;;;;;;;10.98;8.65;;;;;;;17.29;61.91;96186.88;3590881;39;20508;-61
2021/06/12 03:50:54;;;;;;;10.73;9.60;;;;;;;17.72;58.33;96189.31;3582458;40;20169;-61
2021/06/12 03:53:29;;;;;;;10.05;9.00;;;;;;;17.95;58.50;96184.09;3590452;39;20051;-62
2021/06/12 03:55:59;;;;;;;9.40;8.50;;;;;;;18.36;57.25;96183.31;3590847;39;20393;-61
2021/06/12 03:58:27;;;;;;;9.77;8.93;;;;;;;18.75;55.56;96181.16;3588154;39;20048;-62
2021/06/12 04:00:55;;;;;;;9.75;8.57;;;;;;;19.02;54.06;96180.28;3590479;39;20070;-61
2021/06/12 04:03:22;;;;;;;9.55;8.65;;;;;;;19.12;53.31;96181.16;3580485;40;20060;-62
2021/06/12 04:05:50;;;;;;;9.27;8.20;;;;;;;19.64;52.45;96176.09;3579646;39;20056;-62
2021/06/12 04:08:18;;;;;;;9.93;8.35;;;;;;;19.95;51.95;96182.53;3572875;39;20048;-62
2021/06/12 04:10:45;;;;;;;9.60;8.48;;;;;;;20.22;50.41;96178.84;3589909;39;20044;-62
2021/06/12 04:13:13;;;;;;;8.85;7.95;;;;;;;20.40;49.08;96177.00;3570611;39;20058;-62
2021/06/12 04:15:40;;;;;;;9.65;8.57;;;;;;;20.55;49.94;96183.78;3589125;39;20040;-62
2021/06/12 04:18:08;;;;;;;11.90;8.02;;;;;;;20.73;49.09;96183.81;3571848;39;20054;-62
2021/06/12 04:20:39;;;;;;;8.48;7.68;;;;;;;20.95;48.26;96190.16;3579224;40;20072;-62
2021/06/12 04:23:07;;;;;;;8.20;6.45;;;;;;;21.39;47.15;96190.09;3588830;39;20048;-62
2021/06/12 04:25:36;;;;;;;10.68;7.18;;;;;;;21.69;46.57;96185.63;3590433;39;20048;-62
2021/06/12 04:28:04;;;;;;;8.65;7.72;;;;;;;21.77;45.69;96192.09;3589980;39;20327;-62
2021/06/12 04:30:32;;;;;;;7.95;7.18;;;;;;;21.85;45.45;96182.41;3576429;39;20052;-62
2021/06/12 04:33:02;;;;;;;9.88;6.80;;;;;;;22.09;45.33;96185.28;3580222;40;20048;-62
2021/06/12 04:35:30;;;;;;;9.20;7.88;;;;;;;22.20;44.32;96187.63;3580542;39;20319;-62
2021/06/12 04:37:59;;;;;;;8.57;7.78;;;;;;;22.30;44.95;96191.84;3575180;40;20054;-62
2021/06/12 04:40:29;;;;;;;7.78;7.18;;;;;;;22.39;44.28;96195.28;3587576;39;20144;-61
2021/06/12 04:42:57;;;;;;;8.23;7.53;;;;;;;22.25;45.01;96184.75;3596376;39;20081;-62
2021/06/12 04:45:26;;;;;;;7.65;6.70;;;;;;;22.58;43.92;96197.56;3571226;40;20050;-62
2021/06/12 04:47:54;;;;;;;8.30;7.50;;;;;;;22.43;43.56;96201.59;3589607;39;20052;-62
2021/06/12 04:50:22;;;;;;;7.65;7.05;;;;;;;22.07;44.84;96200.16;3570889;39;20054;-62
2021/06/12 04:52:50;;;;;;;10.80;7.97;;;;;;;21.97;45.71;96201.31;3586850;39;20041;-62
2021/06/12 04:55:18;;;;;;;8.35;7.50;;;;;;;21.82;45.61;96197.28;3590514;39;20055;-62
2021/06/12 04:57:46;;;;;;;9.23;7.82;;;;;;;21.53;46.35;96188.03;3590073;39;20056;-62
2021/06/12 05:00:14;;;;;;;7.80;6.65;;;;;;;21.88;45.97;96187.94;3587493;39;20044;-62
2021/06/12 05:02:42;;;;;;;7.22;6.53;;;;;;;22.32;44.86;96190.41;3582835;39;20046;-62
2021/06/12 05:05:11;;;;;;;7.93;6.65;;;;;;;22.46;44.80;96187.50;3591368;39;20062;-62
2021/06/12 05:07:38;;;;;;;8.80;7.97;;;;;;;22.38;44.25;96196.38;3592369;39;20055;-62
2021/06/12 05:10:08;;;;;;;8.43;7.65;;;;;;;22.35;45.00;96191.66;3576287;39;20573;-62
2021/06/12 05:12:38;;;;;;;7.53;6.82;;;;;;;22.55;44.71;96190.16;3590890;39;20054;-62
2021/06/12 05:15:08;;;;;;;7.93;7.13;;;;;;;22.75;45.03;96182.41;3581266;39;20061;-65
2021/06/12 05:17:40;;;;;;;8.52;7.55;;;;;;;22.30;44.45;96187.25;3583086;39;20062;-62
2021/06/12 05:20:10;;;;;;;8.70;7.57;;;;;;;21.54;46.49;96194.16;3579919;39;20048;-61
2021/06/12 05:22:42;;;;;;;8.63;7.25;;;;;;;21.07;46.92;96195.66;3565030;39;20565;-61
2021/06/12 05:25:10;;;;;;;9.75;7.85;;;;;;;20.55;48.98;96191.06;3577689;39;20054;-61
2021/06/12 05:27:38;;;;;;;10.82;7.75;;;;;;;20.33;50.11;96189.28;3587332;39;20060;-62
2021/06/12 05:30:07;;;;;;;10.63;7.20;;;;;;;20.15;50.79;96186.53;3578963;39;20052;-61
2021/06/12 05:32:34;;;;;;;8.60;7.60;;;;;;;19.92;50.95;96185.84;3580594;39;20094;-62
2021/06/12 05:35:03;;;;;;;8.05;7.25;;;;;;;19.83;50.83;96183.09;3588397;39;20062;-61
2021/06/12 05:37:30;;;;;;;7.07;6.43;;;;;;;19.74;50.70;96179.59;3592185;39;20062;-61
2021/06/12 05:39:58;;;;;;;13.25;12.00;;;;;;;19.49;52.62;96176.50;3583847;39;20050;-61
2021/06/12 05:42:25;;;;;;;10.40;7.43;;;;;;;19.39;52.99;96182.88;3582241;39;20048;-61
2021/06/12 05:44:53;;;;;;;7.82;7.13;;;;;;;19.36;53.08;96178.13;3590217;39;20405;-61
2021/06/12 05:47:21;;;;;;;9.63;7.68;;;;;;;19.44;52.11;96177.41;3581631;40;20059;-61
2021/06/12 05:49:48;;;;;;;8.30;7.45;;;;;;;19.42;53.24;96176.13;3578190;40;20051;-61
2021/06/12 05:52:16;;;;;;;9.23;8.48;;;;;;;19.36;54.39;96175.47;3572581;39;20054;-61
2021/06/12 05:54:44;;;;;;;9.02;7.68;;;;;;;19.39;53.97;96174.88;3581640;40;20044;-62
2021/06/12 05:57:12;;;;;;;7.95;7.15;;;;;;;19.41;53.24;96174.53;3575463;39;20044;-62
2021/06/12 05:59:40;;;;;;;6.65;6.05;;;;;;;19.42;53.44;96166.22;3590863;39;20058;-61
2021/06/12 06:02:07;;;;;;;7.50;6.70;;;;;;;19.56;53.48;96176.06;3588743;39;20052;-62
2021/06/12 06:04:35;;;;;;;8.13;7.05;;;;;;;19.68;52.79;96168.25;3593162;39;20050;-62
2021/06/12 06:07:03;;;;;;;8.20;7.50;;;;;;;19.88;52.06;96168.81;3589359;39;20300;-62
2021/06/12 06:09:31;;;;;;;12.32;6.95;;;;;;;20.09;52.28;96174.41;3584158;39;20073;-62
2021/06/12 06:11:58;;;;;;;9.02;8.27;;;;;;;19.91;52.31;96173.56;3592514;39;20052;-61
2021/06/12 06:14:26;;;;;;;8.77;7.95;;;;;;;19.79;52.52;96164.19;3582900;39;20058;-62
2021/06/12 06:16:54;;;;;;;10.02;7.10;;;;;;;19.60;52.69;96155.59;3591552;39;20052;-62
2021/06/12 06:19:21;;;;;;;7.40;6.90;;;;;;;19.68;53.02;96160.22;3592253;39;20978;-62
2021/06/12 06:21:49;;;;;;;8.00;7.32;;;;;;;19.78;54.55;96156.47;3580871;39;20093;-62
2021/06/12 06:24:17;;;;;;;10.15;9.25;;;;;;;19.79;53.66;96152.69;3590311;39;20051;-62
2021/06/12 06:26:44;;;;;;;7.15;6.55;;;;;;;19.86;53.92;96147.72;3579274;39;20048;-62
2021/06/12 06:29:12;;;;;;;7.72;7.00;;;;;;;20.08;53.07;96151.41;3572452;40;20513;-62
2021/06/12 06:31:40;;;;;;;7.57;6.88;;;;;;;20.20;52.96;96150.78;3571894;39;20052;-62
2021/06/12 06:34:08;;;;;;;8.68;7.35;;;;;;;20.26;51.71;96146.88;3568986;40;20060;-62
2021/06/12 06:36:35;;;;;;;11.88;7.50;;;;;;;20.19;51.96;96143.84;3590902;39;20056;-62
2021/06/12 06:39:03;;;;;;;8.00;7.07;;;;;;;20.26;51.54;96141.53;3569610;40;20040;-62
2021/06/12 06:41:32;;;;;;;7.78;7.03;;;;;;;20.28;52.97;96132.06;3581499;39;20490;-62
2021/06/12 06:44:00;;;;;;;7.75;7.05;;;;;;;20.39;52.05;96131.75;3589776;39;20056;-63
2021/06/12 06:46:27;;;;;;;7.40;6.15;;;;;;;20.42;52.94;96131.13;3574850;40;20572;-62
2021/06/12 06:48:55;;;;;;;8.32;7.55;;;;;;;20.63;52.46;96138.53;3567215;40;20233;-62
2021/06/12 06:51:23;;;;;;;7.53;6.45;;;;;;;20.81;52.31;96134.78;3580186;40;20058;-62
2021/06/12 06:53:50;;;;;;;11.55;7.85;;;;;;;20.92;51.48;96124.56;3581462;40;20056;-62
2021/06/12 06:56:18;;;;;;;8.43;7.65;;;;;;;20.95;50.91;96126.56;3591235;39;20037;-63
2021/06/12 06:58:46;;;;;;;8.45;7.65;;;;;;;21.05;51.80;96125.47;3581768;40;20048;-62
2021/06/12 07:01:13;;;;;;;11.68;7.90;;;;;;;21.20;50.39;96122.28;3577701;39;20375;-62
2021/06/12 07:03:41;;;;;;;7.75;7.15;;;;;;;21.34;49.68;96116.72;3579629;40;20560;-63
2021/06/12 07:06:15;;;;;;;12.02;9.02;;;;;;;21.55;50.17;96116.00;3588125;39;20063;-62
2021/06/12 07:08:43;;;;;;;7.15;6.45;;;;;;;21.70;49.13;96108.56;3587785;39;20047;-62
2021/06/12 07:11:11;;;;;;;8.27;6.60;;;;;;;21.89;48.95;96124.25;3587069;39;20058;-62
2021/06/12 07:13:39;;;;;;;8.65;7.45;;;;;;;22.03;49.13;96118.69;3592035;39;20068;-62
2021/06/12 07:16:06;;;;;;;7.68;6.97;;;;;;;22.18;48.97;96120.78;3574955;39;20051;-62
2021/06/12 07:18:36;;;;;;;7.00;6.30;;;;;;;22.29;48.34;96123.88;3585449;39;20058;-62
2021/06/12 07:21:04;;;;;;;6.75;5.75;;;;;;;22.47;47.72;96121.09;3579558;40;20048;-61
2021/06/12 07:23:32;;;;;;;7.07;5.93;;;;;;;22.56;43.86;96114.53;3578890;39;20077;-62
2021/06/12 07:26:03;;;;;;;5.97;5.38;;;;;;;22.49;44.72;96108.09;3589043;39;20083;-62
2021/06/12 07:28:31;;;;;;;6.95;5.50;;;;;;;22.61;44.70;96110.09;3575154;40;20096;-61
2021/06/12 07:30:59;;;;;;;8.35;5.55;;;;;;;22.83;44.94;96108.94;3589164;39;20294;-62
2021/06/12 07:33:27;;;;;;;6.43;5.38;;;;;;;23.13;44.09;96101.53;3588013;39;22151;-62
2021/06/12 07:35:55;;;;;;;7.03;4.80;;;;;;;23.27;41.67;96103.94;3592495;39;20051;-64
2021/06/12 07:38:23;;;;;;;6.03;4.70;;;;;;;22.91;43.03;96108.06;3586588;39;20098;-63
2021/06/12 07:40:50;;;;;;;7.90;4.47;;;;;;;23.14;43.72;96105.00;3589847;39;20059;-63
2021/06/12 07:43:21;;;;;;;5.55;4.97;;;;;;;23.23;43.91;96096.88;3589492;39;20040;-63
2021/06/12 07:45:50;;;;;;;5.00;4.15;;;;;;;23.31;42.32;96095.97;3580644;40;20047;-63
2021/06/12 07:48:18;;;;;;;5.25;4.53;;;;;;;23.32;42.98;96090.25;3589153;39;20045;-63
2021/06/12 07:50:45;;;;;;;5.53;4.82;;;;;;;23.47;42.15;96090.72;3588661;39;20583;-63
2021/06/12 07:53:13;;;;;;;8.02;4.63;;;;;;;23.64;42.59;96079.75;3574071;40;20082;-63
2021/06/12 07:55:41;;;;;;;4.63;4.18;;;;;;;23.83;41.25;96081.09;3577465;40;20058;-63
2021/06/12 07:58:09;;;;;;;6.03;4.63;;;;;;;23.70;41.82;96077.63;3579101;39;20056;-64
2021/06/12 08:00:36;;;;;;;5.75;4.60;;;;;;;23.84;41.66;96087.28;3589746;39;20144;-63
2021/06/12 08:03:04;;;;;;;5.55;4.50;;;;;;;23.98;41.94;96081.56;3576271;40;20052;-63
2021/06/12 08:05:32;;;;;;;5.18;3.88;;;;;;;24.17;41.75;96076.38;3589570;40;20059;-63
2021/06/12 08:07:59;;;;;;;4.32;3.33;;;;;;;24.35;40.04;96081.47;3581514;39;20052;-63
2021/06/12 08:10:27;;;;;;;4.90;4.43;;;;;;;24.33;39.83;96086.44;3589198;39;20213;-62
2021/06/12 08:12:55;;;;;;;5.40;4.28;;;;;;;24.29;40.44;96080.94;3562633;39;20426;-61
2021/06/12 08:15:24;;;;;;;4.57;4.00;;;;;;;24.45;40.50;96070.22;3587791;39;20052;-62
2021/06/12 08:17:51;;;;;;;5.30;4.80;;;;;;;24.73;40.39;96071.41;3578475;39;20046;-62
2021/06/12 08:20:20;;;;;;;4.82;4.32;;;;;;;24.75;38.73;96075.31;3564407;39;20054;-62
2021/06/12 08:22:47;;;;;;;4.38;3.75;;;;;;;24.72;39.26;96081.38;3579778;39;20052;-62
2021/06/12 08:25:16;;;;;;;4.38;3.97;;;;;;;24.51;39.22;96079.66;3580968;39;20062;-62
2021/06/12 08:27:44;;;;;;;5.10;3.85;;;;;;;24.83;38.87;96079.75;3578841;39;20054;-62
2021/06/12 08:30:12;;;;;;;4.35;3.35;;;;;;;24.87;38.81;96083.34;3588200;39;20066;-61
2021/06/12 08:32:40;;;;;;;4.45;4.03;;;;;;;24.71;38.46;96079.81;3584604;39;20289;-62
2021/06/12 08:35:09;;;;;;;5.15;4.25;;;;;;;24.61;39.00;96073.00;3590407;39;20050;-62
2021/06/12 08:37:37;;;;;;;4.25;3.85;;;;;;;24.57;39.20;96070.16;3593371;39;20071;-62
2021/06/12 08:40:06;;;;;;;4.38;3.67;;;;;;;24.62;38.53;96076.47;3591854;39;20044;-61
2021/06/12 08:42:33;;;;;;;5.90;3.33;;;;;;;24.46;39.04;96071.00;3585581;39;20077;-63
2021/06/12 08:45:03;;;;;;;3.83;3.42;;;;;;;24.29;39.07;96078.25;3571922;39;20052;-61
2021/06/12 08:47:37;;;;;;;3.97;3.60;;;;;;;24.62;38.99;96068.38;3592165;39;20044;-62
2021/06/12 08:50:06;;;;;;;3.35;3.05;;;;;;;24.84;37.08;96067.84;3580089;39;20044;-62
2021/06/12 08:52:36;;;;;;;3.78;3.45;;;;;;;24.86;37.84;96073.69;3596478;39;20297;-62
2021/06/12 08:55:07;;;;;;;3.28;2.97;;;;;;;24.85;38.09;96072.13;3583872;39;20050;-62
2021/06/12 08:57:36;;;;;;;3.88;3.13;;;;;;;24.82;38.41;96070.09;3582376;40;20041;-63
2021/06/12 09:00:07;;;;;;;3.92;3.63;;;;;;;24.92;38.50;96062.66;3572773;40;20052;-62
2021/06/12 09:03:10;;;;;;;4.05;3.22;;;;;;;24.90;36.92;96073.00;3585562;40;20393;-62
2021/06/12 09:05:47;;;;;;;4.32;3.63;;;;;;;24.83;37.33;96066.28;3592904;40;20055;-62
2021/06/12 09:08:22;;;;;;;4.65;3.10;;;;;;;24.95;37.09;96057.34;3584592;40;20048;-62
2021/06/12 09:10:51;;;;;;;;;;;;;;;24.93;36.67;96058.81;3589493;39;20056;-63
2021/06/12 09:13:48;;;;;;;7.03;3.13;;;;;;;24.74;36.62;96065.66;3587942;39;19946;-63
2021/06/12 09:16:27;;;;;;;3.58;2.92;;;;;;;24.74;36.39;96068.34;3579457;40;20434;-63
2021/06/12 09:19:20;;;;;;;5.28;3.42;;;;;;;24.76;37.00;96059.91;3580781;40;20059;-63
2021/06/12 09:21:57;;;;;;;4.57;3.20;;;;;;;24.86;36.78;96054.03;3593435;40;20050;-63
2021/06/12 09:24:45;;;;;;;4.55;3.25;;;;;;;24.98;37.01;96051.25;3580426;40;20071;-63
2021/06/12 09:27:17;;;;;;;4.15;3.50;;;;;;;25.04;36.43;96046.41;3577692;39;20062;-63
2021/06/12 09:29:50;;;;;;;3.30;2.80;;;;;;;25.08;36.22;96041.84;3591790;40;20052;-63
2021/06/12 09:32:25;;;;;;;3.17;2.88;;;;;;;25.11;36.27;96037.69;3592260;40;20058;-63
2021/06/12 09:34:55;;;;;;;;;;;;;;;25.06;35.72;96036.00;3565386;40;20693;-63
2021/06/12 09:37:27;;;;;;;3.50;3.20;;;;;;;25.14;35.44;96043.19;3588324;39;19942;-63
2021/06/12 09:40:06;;;;;;;2.67;2.28;;;;;;;25.31;34.67;96038.53;3578484;40;20056;-62
2021/06/12 09:42:51;;;;;;;2.92;2.72;;;;;;;25.36;34.57;96035.59;3572935;39;20052;-63
2021/06/12 09:45:32;;;;;;;4.43;3.13;;;;;;;25.55;34.56;96028.72;3583848;39;20048;-63
2021/06/12 09:48:22;;;;;;;2.95;2.75;;;;;;;25.55;33.97;96034.13;3568811;39;20058;-63
2021/06/12 09:51:09;;;;;;;2.92;2.72;;;;;;;25.45;34.88;96036.22;3584874;39;20051;-63
2021/06/12 09:53:48;;;;;;;3.80;2.38;;;;;;;25.29;35.16;96033.50;3593374;39;20048;-62
2021/06/12 09:56:16;;;;;;;3.53;2.70;;;;;;;25.23;34.69;96026.78;3589593;39;20518;-63
2021/06/12 09:58:44;;;;;;;5.00;2.80;;;;;;;25.18;34.83;96021.66;3576220;39;20052;-61
2021/06/12 10:01:15;;;;;;;3.08;2.88;;;;;;;25.53;34.96;96010.16;3569018;39;20105;-63
2021/06/12 10:03:43;;;;;;;2.90;2.70;;;;;;;26.00;35.14;96016.59;3575949;40;20052;-63
2021/06/12 10:06:24;;;;;;;3.45;3.25;;;;;;;26.07;33.80;96011.34;3591772;39;20045;-62
2021/06/12 10:08:53;;;;;;;3.60;2.85;;;;;;;26.19;34.25;95999.66;3589858;39;20058;-63
2021/06/12 10:11:26;;;;;;;3.67;2.88;;;;;;;26.13;34.09;96011.09;3586539;40;20064;-61
2021/06/12 10:13:54;;;;;;;3.25;2.95;;;;;;;26.09;33.98;96008.31;3575602;40;20044;-61
2021/06/12 10:16:24;;;;;;;4.25;3.05;;;;;;;26.12;33.83;96009.53;3583033;39;20063;-63
2021/06/12 10:18:54;;;;;;;2.88;2.50;;;;;;;26.13;33.67;96003.00;3579521;40;20082;-61
2021/06/12 10:21:22;;;;;;;3.40;2.80;;;;;;;26.17;33.79;96003.81;3593816;40;20050;-62
2021/06/12 10:23:51;;;;;;;3.05;2.25;;;;;;;26.18;33.14;95997.28;3594058;40;20048;-62
2021/06/12 10:26:20;;;;;;;6.13;3.47;;;;;;;26.34;33.41;95992.59;3583099;40;20308;-62
2021/06/12 10:28:48;;;;;;;3.88;3.20;;;;;;;26.39;34.41;95995.03;3589447;40;20062;-61
2021/06/12 10:31:20;;;;;;;3.05;2.85;;;;;;;26.53;33.51;95994.50;3575907;40;20055;-62
2021/06/12 10:33:50;;;;;;;5.10;3.17;;;;;;;26.73;33.25;95986.34;3582238;40;20044;-62
2021/06/12 10:36:24;;;;;;;3.60;2.38;;;;;;;26.83;32.41;95985.00;3593578;40;20289;-62
2021/06/12 10:38:52;;;;;;;2.75;2.55;;;;;;;27.12;32.71;95990.91;3591722;40;20047;-62
2021/06/12 10:41:34;;;;;;;2.60;2.40;;;;;;;27.02;31.80;95986.88;3574908;40;20050;-62
2021/06/12 10:44:04;;;;;;;4.82;3.33;;;;;;;26.84;32.51;95981.16;3583845;40;20132;-62
2021/06/12 10:46:45;;;;;;;3.08;2.88;;;;;;;26.65;32.21;95973.84;3593674;40;20130;-62
2021/06/12 10:49:27;;;;;;;2.75;2.55;;;;;;;26.71;32.41;95975.09;3583095;40;20327;-62
2021/06/12 10:51:55;;;;;;;3.45;3.00;;;;;;;27.04;33.20;95967.56;3591049;39;20503;-62
2021/06/12 10:54:26;;;;;;;2.60;2.50;;;;;;;26.98;31.29;95959.75;3582782;39;20060;-63
2021/06/12 10:57:03;;;;;;;3.20;3.00;;;;;;;27.10;31.38;95966.13;3591996;40;20647;-62
2021/06/12 10:59:38;;;;;;;7.40;3.35;;;;;;;27.30;31.43;95956.75;3575874;40;20048;-63
2021/06/12 11:02:21;;;;;;;3.53;2.67;;;;;;;27.47;31.73;95952.78;3592689;39;20057;-65
2021/06/12 11:04:57;;;;;;;2.45;2.25;;;;;;;27.45;31.45;95954.28;3584903;40;20909;-62
2021/06/12 11:07:33;;;;;;;2.92;2.70;;;;;;;27.40;32.01;95954.56;3593846;40;20274;-61
2021/06/12 11:10:11;;;;;;;2.30;2.15;;;;;;;27.13;31.17;95949.16;3583286;40;20040;-62
2021/06/12 11:12:40;;;;;;;4.22;2.40;;;;;;;27.09;32.04;95954.50;3575842;40;20028;-62
2021/06/12 11:15:11;;;;;;;4.13;3.42;;;;;;;27.10;31.19;95942.53;3593031;40;20047;-62
2021/06/12 11:17:41;;;;;;;2.85;2.63;;;;;;;27.12;32.09;95942.19;3583981;40;21022;-62
2021/06/12 11:20:11;;;;;;;2.30;2.15;;;;;;;27.22;31.17;95946.97;3592940;39;20094;-62
2021/06/12 11:23:01;;;;;;;3.22;2.80;;;;;;;27.21;31.47;95937.28;3593762;40;20040;-63
2021/06/12 11:25:29;;;;;;;3.80;3.20;;;;;;;27.12;31.56;95942.94;3575843;40;20069;-62
2021/06/12 11:28:16;;;;;;;4.65;3.13;;;;;;;26.84;32.42;95932.44;3594194;40;20050;-62
2021/06/12 11:30:45;;;;;;;3.28;2.97;;;;;;;26.73;32.41;95937.63;3593903;39;20044;-63
2021/06/12 11:33:13;;;;;;;3.67;3.35;;;;;;;26.90;32.43;95941.81;3584116;40;20043;-63
2021/06/12 11:35:57;;;;;;;4.47;4.05;;;;;;;26.60;32.68;95939.75;3593118;40;20497;-62
2021/06/12 11:38:36;;;;;;;3.85;3.47;;;;;;;26.67;33.83;95952.63;3591484;40;20052;-62
2021/06/12 11:41:12;;;;;;;3.95;3.65;;;;;;;26.61;33.52;95935.91;3567923;40;20044;-62
2021/06/12 11:43:42;;;;;;;5.15;3.95;;;;;;;26.33;33.60;95942.34;3584339;40;20054;-62
2021/06/12 11:46:17;;;;;;;5.25;3.75;;;;;;;26.40;34.30;95953.28;3575812;40;20044;-62